Terminal Aerodrome Forecast
Issued by NWS Caribou, ME

Home | Current Version | Previous Version | Text Only | Print | Product List | Glossary On
Versions: 1 2 3 4 5 6 7 8 9 10 11 12 13 14
000
FTUS41 KCAR 302325
TAFCAR
TAF
KCAR 302325Z 3100/3124 23005KT P6SM FEW050 SCT120
     FM311300 24010G18KT P6SM BKN050
     FM311600 26010G18KT P6SM VCSH BKN045
     FM312100 30011G18KT P6SM SCT080=

USA.gov is the U.S. government's official web portal to all federal, state and local government web resources and services.